sensor_id;sensor_type;location;lat;lon;timestamp;P1;P2;P0
56360;PMS7003;42611;51.132;13.588;2023-10-13T00:00:01;6.8;6.4;
56360;PMS7003;42611;51.132;13.588;2023-10-13T00:10:01;6.4;6.2;
56360;PMS7003;42611;51.132;13.588;2023-10-13T00:15:01;5.6;5.3;
56360;PMS7003;42611;51.132;13.588;2023-10-13T00:20:01;6.0;5.7;
56360;PMS7003;42611;51.132;13.588;2023-10-13T00:25:01;7.0;6.3;
56360;PMS7003;42611;51.132;13.588;2023-10-13T00:30:05;6.8;6.3;
56360;PMS7003;42611;51.132;13.588;2023-10-13T00:35:01;7.5;6.6;
56360;PMS7003;42611;51.132;13.588;2023-10-13T00:40:01;7.7;6.8;
56360;PMS7003;42611;51.132;13.588;2023-10-13T00:45:01;7.4;6.5;
56360;PMS7003;42611;51.132;13.588;2023-10-13T00:50:01;6.6;6.1;
56360;PMS7003;42611;51.132;13.588;2023-10-13T01:00:01;6.0;5.9;
56360;PMS7003;42611;51.132;13.588;2023-10-13T01:05:02;6.1;6.0;
56360;PMS7003;42611;51.132;13.588;2023-10-13T01:10:01;6.7;6.4;
56360;PMS7003;42611;51.132;13.588;2023-10-13T01:15:02;6.9;6.6;
56360;PMS7003;42611;51.132;13.588;2023-10-13T01:20:01;6.7;6.4;
56360;PMS7003;42611;51.132;13.588;2023-10-13T01:25:01;6.6;6.4;
56360;PMS7003;42611;51.132;13.588;2023-10-13T01:30:01;6.9;6.7;
56360;PMS7003;42611;51.132;13.588;2023-10-13T01:35:01;6.3;6.3;
56360;PMS7003;42611;51.132;13.588;2023-10-13T01:45:01;6.7;6.4;
56360;PMS7003;42611;51.132;13.588;2023-10-13T01:50:01;6.8;6.5;
56360;PMS7003;42611;51.132;13.588;2023-10-13T01:55:01;6.1;5.8;
56360;PMS7003;42611;51.132;13.588;2023-10-13T02:00:02;6.3;6.0;
56360;PMS7003;42611;51.132;13.588;2023-10-13T02:05:01;5.7;5.6;
56360;PMS7003;42611;51.132;13.588;2023-10-13T02:10:01;5.8;5.5;
56360;PMS7003;42611;51.132;13.588;2023-10-13T02:15:02;5.3;5.0;
56360;PMS7003;42611;51.132;13.588;2023-10-13T02:20:01;5.6;5.4;
56360;PMS7003;42611;51.132;13.588;2023-10-13T02:30:02;6.0;5.7;
56360;PMS7003;42611;51.132;13.588;2023-10-13T02:35:01;5.4;5.4;
56360;PMS7003;42611;51.132;13.588;2023-10-13T02:40:01;5.9;5.9;
56360;PMS7003;42611;51.132;13.588;2023-10-13T02:45:02;6.4;6.3;
56360;PMS7003;42611;51.132;13.588;2023-10-13T02:50:01;6.8;6.7;
56360;PMS7003;42611;51.132;13.588;2023-10-13T02:55:01;6.3;6.2;
56360;PMS7003;42611;51.132;13.588;2023-10-13T03:00:02;6.8;6.7;
56360;PMS7003;42611;51.132;13.588;2023-10-13T03:10:02;5.3;5.3;
56360;PMS7003;42611;51.132;13.588;2023-10-13T03:15:02;4.9;4.9;
56360;PMS7003;42611;51.132;13.588;2023-10-13T03:20:01;5.1;5.1;
56360;PMS7003;42611;51.132;13.588;2023-10-13T03:25:01;5.0;5.0;
56360;PMS7003;42611;51.132;13.588;2023-10-13T03:30:01;5.0;4.8;
56360;PMS7003;42611;51.132;13.588;2023-10-13T03:35:01;5.6;5.4;
56360;PMS7003;42611;51.132;13.588;2023-10-13T03:40:02;5.1;4.9;
56360;PMS7003;42611;51.132;13.588;2023-10-13T03:45:01;5.2;5.0;
56360;PMS7003;42611;51.132;13.588;2023-10-13T03:50:01;5.4;5.0;
56360;PMS7003;42611;51.132;13.588;2023-10-13T03:55:01;5.5;5.3;
56360;PMS7003;42611;51.132;13.588;2023-10-13T04:00:01;5.6;5.4;
56360;PMS7003;42611;51.132;13.588;2023-10-13T04:05:02;6.0;5.6;
56360;PMS7003;42611;51.132;13.588;2023-10-13T04:10:01;5.9;5.5;
56360;PMS7003;42611;51.132;13.588;2023-10-13T04:15:01;5.6;5.4;
56360;PMS7003;42611;51.132;13.588;2023-10-13T04:20:01;5.4;5.2;
56360;PMS7003;42611;51.132;13.588;2023-10-13T04:25:01;6.0;5.4;
56360;PMS7003;42611;51.132;13.588;2023-10-13T04:30:02;6.1;5.6;
56360;PMS7003;42611;51.132;13.588;2023-10-13T04:35:01;6.6;6.1;
56360;PMS7003;42611;51.132;13.588;2023-10-13T04:40:01;6.7;5.9;
56360;PMS7003;42611;51.132;13.588;2023-10-13T04:45:02;6.4;5.4;
56360;PMS7003;42611;51.132;13.588;2023-10-13T04:55:01;6.0;5.0;
56360;PMS7003;42611;51.132;13.588;2023-10-13T05:00:04;5.6;4.6;
56360;PMS7003;42611;51.132;13.588;2023-10-13T05:05:01;6.2;5.2;
56360;PMS7003;42611;51.132;13.588;2023-10-13T05:10:04;6.3;5.2;
56360;PMS7003;42611;51.132;13.588;2023-10-13T05:15:02;5.8;5.0;
56360;PMS7003;42611;51.132;13.588;2023-10-13T05:25:01;6.1;5.4;
56360;PMS7003;42611;51.132;13.588;2023-10-13T05:30:01;5.6;5.2;
56360;PMS7003;42611;51.132;13.588;2023-10-13T05:35:01;5.0;5.0;
56360;PMS7003;42611;51.132;13.588;2023-10-13T05:40:01;5.1;5.1;
56360;PMS7003;42611;51.132;13.588;2023-10-13T05:45:01;5.2;4.9;
56360;PMS7003;42611;51.132;13.588;2023-10-13T05:50:01;5.0;4.7;
56360;PMS7003;42611;51.132;13.588;2023-10-13T05:55:01;4.8;4.5;
56360;PMS7003;42611;51.132;13.588;2023-10-13T06:00:02;5.4;4.9;
56360;PMS7003;42611;51.132;13.588;2023-10-13T06:05:02;5.2;4.7;
56360;PMS7003;42611;51.132;13.588;2023-10-13T06:15:02;5.0;4.6;
56360;PMS7003;42611;51.132;13.588;2023-10-13T06:20:01;4.8;4.2;
56360;PMS7003;42611;51.132;13.588;2023-10-13T06:25:01;4.4;4.0;
56360;PMS7003;42611;51.132;13.588;2023-10-13T06:30:03;4.1;3.7;
56360;PMS7003;42611;51.132;13.588;2023-10-13T06:35:01;4.0;3.6;
56360;PMS7003;42611;51.132;13.588;2023-10-13T06:40:01;4.4;3.8;
56360;PMS7003;42611;51.132;13.588;2023-10-13T06:45:02;4.4;4.0;
56360;PMS7003;42611;51.132;13.588;2023-10-13T06:50:01;4.5;3.9;
56360;PMS7003;42611;51.132;13.588;2023-10-13T06:55:01;5.3;4.6;
56360;PMS7003;42611;51.132;13.588;2023-10-13T07:00:02;5.3;4.6;
56360;PMS7003;42611;51.132;13.588;2023-10-13T07:05:01;5.2;4.9;
56360;PMS7003;42611;51.132;13.588;2023-10-13T07:15:03;5.4;5.1;
56360;PMS7003;42611;51.132;13.588;2023-10-13T07:20:01;4.4;4.3;
56360;PMS7003;42611;51.132;13.588;2023-10-13T07:25:01;4.5;4.4;
56360;PMS7003;42611;51.132;13.588;2023-10-13T07:30:02;4.2;4.1;
56360;PMS7003;42611;51.132;13.588;2023-10-13T07:40:01;4.4;4.0;
56360;PMS7003;42611;51.132;13.588;2023-10-13T07:45:01;4.4;4.0;
56360;PMS7003;42611;51.132;13.588;2023-10-13T07:50:01;4.5;3.9;
56360;PMS7003;42611;51.132;13.588;2023-10-13T07:55:01;4.7;4.0;
56360;PMS7003;42611;51.132;13.588;2023-10-13T08:00:02;5.2;4.4;
56360;PMS7003;42611;51.132;13.588;2023-10-13T08:05:01;4.8;4.5;
56360;PMS7003;42611;51.132;13.588;2023-10-13T08:10:01;5.0;4.7;
56360;PMS7003;42611;51.132;13.588;2023-10-13T08:15:03;4.6;4.5;
56360;PMS7003;42611;51.132;13.588;2023-10-13T08:20:02;4.3;4.3;
56360;PMS7003;42611;51.132;13.588;2023-10-13T08:25:01;4.0;3.8;
56360;PMS7003;42611;51.132;13.588;2023-10-13T08:30:02;4.1;3.8;
56360;PMS7003;42611;51.132;13.588;2023-10-13T08:35:02;4.4;4.0;
56360;PMS7003;42611;51.132;13.588;2023-10-13T08:40:15;4.6;4.0;
56360;PMS7003;42611;51.132;13.588;2023-10-13T08:45:03;4.9;4.0;
56360;PMS7003;42611;51.132;13.588;2023-10-13T08:50:01;4.8;4.0;
56360;PMS7003;42611;51.132;13.588;2023-10-13T08:55:01;4.2;3.6;
56360;PMS7003;42611;51.132;13.588;2023-10-13T09:00:02;4.8;3.7;
56360;PMS7003;42611;51.132;13.588;2023-10-13T09:10:01;5.2;4.1;
56360;PMS7003;42611;51.132;13.588;2023-10-13T09:15:06;5.0;3.9;
56360;PMS7003;42611;51.132;13.588;2023-10-13T09:20:03;5.4;4.3;
56360;PMS7003;42611;51.132;13.588;2023-10-13T09:25:02;4.6;4.1;
56360;PMS7003;42611;51.132;13.588;2023-10-13T09:30:07;5.0;4.1;
56360;PMS7003;42611;51.132;13.588;2023-10-13T09:35:01;4.8;4.3;
56360;PMS7003;42611;51.132;13.588;2023-10-13T09:40:01;5.3;4.5;
56360;PMS7003;42611;51.132;13.588;2023-10-13T09:45:02;5.3;4.4;
56360;PMS7003;42611;51.132;13.588;2023-10-13T09:50:01;4.9;4.0;
56360;PMS7003;42611;51.132;13.588;2023-10-13T09:55:07;4.6;3.8;
56360;PMS7003;42611;51.132;13.588;2023-10-13T10:00:09;4.4;3.6;
56360;PMS7003;42611;51.132;13.588;2023-10-13T10:05:01;3.8;3.4;
56360;PMS7003;42611;51.132;13.588;2023-10-13T10:10:01;3.7;3.3;
56360;PMS7003;42611;51.132;13.588;2023-10-13T10:15:33;4.2;3.7;
56360;PMS7003;42611;51.132;13.588;2023-10-13T10:20:01;3.7;3.5;
56360;PMS7003;42611;51.132;13.588;2023-10-13T10:25:03;3.3;3.1;
56360;PMS7003;42611;51.132;13.588;2023-10-13T10:30:03;4.6;3.6;
56360;PMS7003;42611;51.132;13.588;2023-10-13T10:35:03;5.2;3.9;
56360;PMS7003;42611;51.132;13.588;2023-10-13T10:40:01;4.7;3.6;
56360;PMS7003;42611;51.132;13.588;2023-10-13T10:45:01;5.1;3.6;
56360;PMS7003;42611;51.132;13.588;2023-10-13T10:50:01;5.8;4.3;
56360;PMS7003;42611;51.132;13.588;2023-10-13T10:55:01;4.6;4.0;
56360;PMS7003;42611;51.132;13.588;2023-10-13T11:00:02;4.6;4.0;
56360;PMS7003;42611;51.132;13.588;2023-10-13T11:05:01;5.0;4.4;
56360;PMS7003;42611;51.132;13.588;2023-10-13T11:15:05;4.8;4.4;
56360;PMS7003;42611;51.132;13.588;2023-10-13T11:20:07;5.0;4.6;
56360;PMS7003;42611;51.132;13.588;2023-10-13T11:25:02;5.1;4.3;
56360;PMS7003;42611;51.132;13.588;2023-10-13T11:30:02;5.1;4.3;
56360;PMS7003;42611;51.132;13.588;2023-10-13T11:35:01;4.8;4.1;
56360;PMS7003;42611;51.132;13.588;2023-10-13T11:40:01;4.4;3.7;
56360;PMS7003;42611;51.132;13.588;2023-10-13T11:45:02;4.2;3.6;
56360;PMS7003;42611;51.132;13.588;2023-10-13T11:50:01;3.8;3.7;
56360;PMS7003;42611;51.132;13.588;2023-10-13T11:55:02;4.2;3.9;
56360;PMS7003;42611;51.132;13.588;2023-10-13T12:00:02;4.4;4.1;
56360;PMS7003;42611;51.132;13.588;2023-10-13T12:05:01;4.5;4.2;
56360;PMS7003;42611;51.132;13.588;2023-10-13T12:10:01;4.2;4.0;
56360;PMS7003;42611;51.132;13.588;2023-10-13T12:15:02;4.2;3.9;
56360;PMS7003;42611;51.132;13.588;2023-10-13T12:20:03;3.9;3.9;
56360;PMS7003;42611;51.132;13.588;2023-10-13T12:25:02;4.0;4.0;
56360;PMS7003;42611;51.132;13.588;2023-10-13T12:30:02;3.8;3.6;
56360;PMS7003;42611;51.132;13.588;2023-10-13T12:35:03;4.1;3.8;
56360;PMS7003;42611;51.132;13.588;2023-10-13T12:40:04;4.3;3.9;
56360;PMS7003;42611;51.132;13.588;2023-10-13T12:45:01;4.7;4.0;
56360;PMS7003;42611;51.132;13.588;2023-10-13T12:50:01;4.9;4.2;
56360;PMS7003;42611;51.132;13.588;2023-10-13T12:55:01;5.1;4.6;
56360;PMS7003;42611;51.132;13.588;2023-10-13T13:00:02;4.8;4.5;
56360;PMS7003;42611;51.132;13.588;2023-10-13T13:05:01;4.9;4.4;
56360;PMS7003;42611;51.132;13.588;2023-10-13T13:10:01;4.5;4.3;
56360;PMS7003;42611;51.132;13.588;2023-10-13T13:15:02;4.9;4.6;
56360;PMS7003;42611;51.132;13.588;2023-10-13T13:20:01;5.0;4.7;
56360;PMS7003;42611;51.132;13.588;2023-10-13T13:25:01;5.6;5.1;
56360;PMS7003;42611;51.132;13.588;2023-10-13T13:30:06;5.6;5.3;
56360;PMS7003;42611;51.132;13.588;2023-10-13T13:40:03;5.0;4.8;
56360;PMS7003;42611;51.132;13.588;2023-10-13T13:45:01;5.1;4.8;
56360;PMS7003;42611;51.132;13.588;2023-10-13T13:50:01;4.9;4.9;
56360;PMS7003;42611;51.132;13.588;2023-10-13T13:55:01;5.1;4.9;
56360;PMS7003;42611;51.132;13.588;2023-10-13T14:00:02;5.1;4.8;
56360;PMS7003;42611;51.132;13.588;2023-10-13T14:05:01;5.0;4.8;
56360;PMS7003;42611;51.132;13.588;2023-10-13T14:10:01;5.3;5.1;
56360;PMS7003;42611;51.132;13.588;2023-10-13T14:15:02;5.4;4.9;
56360;PMS7003;42611;51.132;13.588;2023-10-13T14:25:01;5.3;5.0;
56360;PMS7003;42611;51.132;13.588;2023-10-13T14:30:02;5.8;5.2;
56360;PMS7003;42611;51.132;13.588;2023-10-13T14:35:01;5.5;5.0;
56360;PMS7003;42611;51.132;13.588;2023-10-13T14:40:02;5.2;4.9;
56360;PMS7003;42611;51.132;13.588;2023-10-13T14:45:02;5.6;5.3;
56360;PMS7003;42611;51.132;13.588;2023-10-13T14:50:02;5.7;5.3;
56360;PMS7003;42611;51.132;13.588;2023-10-13T14:55:01;6.5;5.7;
56360;PMS7003;42611;51.132;13.588;2023-10-13T15:00:02;6.3;5.5;
56360;PMS7003;42611;51.132;13.588;2023-10-13T15:05:01;6.4;5.5;
56360;PMS7003;42611;51.132;13.588;2023-10-13T15:10:01;6.2;5.1;
56360;PMS7003;42611;51.132;13.588;2023-10-13T15:15:02;6.3;5.5;
56360;PMS7003;42611;51.132;13.588;2023-10-13T15:20:01;5.6;5.4;
56360;PMS7003;42611;51.132;13.588;2023-10-13T15:25:01;6.2;5.8;
56360;PMS7003;42611;51.132;13.588;2023-10-13T15:30:02;6.6;6.0;
56360;PMS7003;42611;51.132;13.588;2023-10-13T15:35:01;6.2;5.7;
56360;PMS7003;42611;51.132;13.588;2023-10-13T15:40:01;5.7;5.3;
56360;PMS7003;42611;51.132;13.588;2023-10-13T15:45:03;5.8;5.3;
56360;PMS7003;42611;51.132;13.588;2023-10-13T15:50:02;5.6;5.1;
56360;PMS7003;42611;51.132;13.588;2023-10-13T15:55:02;4.7;4.2;
56360;PMS7003;42611;51.132;13.588;2023-10-13T16:00:03;4.8;4.3;
56360;PMS7003;42611;51.132;13.588;2023-10-13T16:05:01;5.0;4.6;
56360;PMS7003;42611;51.132;13.588;2023-10-13T16:10:03;4.9;4.5;
56360;PMS7003;42611;51.132;13.588;2023-10-13T16:15:02;4.8;4.4;
56360;PMS7003;42611;51.132;13.588;2023-10-13T16:20:01;6.0;5.7;
56360;PMS7003;42611;51.132;13.588;2023-10-13T16:25:16;6.4;5.7;
56360;PMS7003;42611;51.132;13.588;2023-10-13T16:30:02;6.2;5.6;
56360;PMS7003;42611;51.132;13.588;2023-10-13T16:35:04;6.0;5.0;
56360;PMS7003;42611;51.132;13.588;2023-10-13T16:40:01;5.9;5.1;
56360;PMS7003;42611;51.132;13.588;2023-10-13T16:45:01;5.7;4.6;
56360;PMS7003;42611;51.132;13.588;2023-10-13T16:50:02;5.1;4.3;
56360;PMS7003;42611;51.132;13.588;2023-10-13T16:55:01;5.3;4.5;
56360;PMS7003;42611;51.132;13.588;2023-10-13T17:00:03;5.1;4.7;
56360;PMS7003;42611;51.132;13.588;2023-10-13T17:05:01;5.0;4.7;
56360;PMS7003;42611;51.132;13.588;2023-10-13T17:10:01;5.2;4.8;
56360;PMS7003;42611;51.132;13.588;2023-10-13T17:15:01;5.6;5.3;
56360;PMS7003;42611;51.132;13.588;2023-10-13T17:20:01;5.4;4.9;
56360;PMS7003;42611;51.132;13.588;2023-10-13T17:25:02;5.9;5.5;
56360;PMS7003;42611;51.132;13.588;2023-10-13T17:30:02;6.0;5.5;
56360;PMS7003;42611;51.132;13.588;2023-10-13T17:35:02;5.7;5.5;
56360;PMS7003;42611;51.132;13.588;2023-10-13T17:40:01;4.8;4.6;
56360;PMS7003;42611;51.132;13.588;2023-10-13T17:45:02;5.0;4.9;
56360;PMS7003;42611;51.132;13.588;2023-10-13T17:50:02;4.3;4.2;
56360;PMS7003;42611;51.132;13.588;2023-10-13T17:55:03;3.9;3.9;
56360;PMS7003;42611;51.132;13.588;2023-10-13T18:00:03;4.3;4.1;
56360;PMS7003;42611;51.132;13.588;2023-10-13T18:05:01;5.2;4.4;
56360;PMS7003;42611;51.132;13.588;2023-10-13T18:10:01;5.4;4.2;
56360;PMS7003;42611;51.132;13.588;2023-10-13T18:15:03;5.6;4.4;
56360;PMS7003;42611;51.132;13.588;2023-10-13T18:20:01;6.0;4.9;
56360;PMS7003;42611;51.132;13.588;2023-10-13T18:25:01;5.6;4.8;
56360;PMS7003;42611;51.132;13.588;2023-10-13T18:30:02;5.5;5.2;
56360;PMS7003;42611;51.132;13.588;2023-10-13T18:35:01;5.2;5.2;
56360;PMS7003;42611;51.132;13.588;2023-10-13T18:40:01;5.1;5.1;
56360;PMS7003;42611;51.132;13.588;2023-10-13T18:45:02;5.0;4.7;
56360;PMS7003;42611;51.132;13.588;2023-10-13T18:50:01;4.8;4.5;
56360;PMS7003;42611;51.132;13.588;2023-10-13T19:01:14;5.0;4.7;
56360;PMS7003;42611;51.132;13.588;2023-10-13T19:06:02;5.3;4.7;
56360;PMS7003;42611;51.132;13.588;2023-10-13T19:11:03;5.2;4.9;
56360;PMS7003;42611;51.132;13.588;2023-10-13T19:16:10;5.3;5.0;
56360;PMS7003;42611;51.132;13.588;2023-10-13T19:21:03;5.5;5.2;
56360;PMS7003;42611;51.132;13.588;2023-10-13T19:26:01;5.3;5.0;
56360;PMS7003;42611;51.132;13.588;2023-10-13T19:31:05;5.2;5.1;
56360;PMS7003;42611;51.132;13.588;2023-10-13T19:41:01;5.0;5.0;
56360;PMS7003;42611;51.132;13.588;2023-10-13T19:46:04;4.5;4.4;
56360;PMS7003;42611;51.132;13.588;2023-10-13T19:52:02;4.2;4.1;
56360;PMS7003;42611;51.132;13.588;2023-10-13T19:57:01;3.8;3.8;
56360;PMS7003;42611;51.132;13.588;2023-10-13T20:02:03;4.3;4.0;
56360;PMS7003;42611;51.132;13.588;2023-10-13T20:07:02;4.0;3.7;
56360;PMS7003;42611;51.132;13.588;2023-10-13T20:12:01;4.3;3.8;
56360;PMS7003;42611;51.132;13.588;2023-10-13T20:17:01;4.6;4.0;
56360;PMS7003;42611;51.132;13.588;2023-10-13T20:22:03;4.7;4.0;
56360;PMS7003;42611;51.132;13.588;2023-10-13T20:27:01;3.8;3.4;
56360;PMS7003;42611;51.132;13.588;2023-10-13T20:32:02;4.0;3.4;
56360;PMS7003;42611;51.132;13.588;2023-10-13T20:47:02;3.9;3.7;
56360;PMS7003;42611;51.132;13.588;2023-10-13T20:52:01;4.4;3.7;
56360;PMS7003;42611;51.132;13.588;2023-10-13T20:58:04;4.5;3.9;
56360;PMS7003;42611;51.132;13.588;2023-10-13T21:03:03;4.4;3.8;
56360;PMS7003;42611;51.132;13.588;2023-10-13T21:08:01;3.8;3.2;
56360;PMS7003;42611;51.132;13.588;2023-10-13T21:13:03;4.0;3.0;
56360;PMS7003;42611;51.132;13.588;2023-10-13T21:23:02;3.9;3.1;
56360;PMS7003;42611;51.132;13.588;2023-10-13T21:28:02;3.8;3.0;
56360;PMS7003;42611;51.132;13.588;2023-10-13T21:33:02;4.1;3.3;
56360;PMS7003;42611;51.132;13.588;2023-10-13T21:38:01;4.2;3.6;
56360;PMS7003;42611;51.132;13.588;2023-10-13T21:43:01;4.1;3.9;
56360;PMS7003;42611;51.132;13.588;2023-10-13T21:48:02;3.8;3.6;
56360;PMS7003;42611;51.132;13.588;2023-10-13T21:58:02;4.2;3.9;
56360;PMS7003;42611;51.132;13.588;2023-10-13T22:03:02;3.6;3.6;
56360;PMS7003;42611;51.132;13.588;2023-10-13T22:08:02;3.4;3.4;
56360;PMS7003;42611;51.132;13.588;2023-10-13T22:13:01;3.7;3.7;
56360;PMS7003;42611;51.132;13.588;2023-10-13T22:18:01;4.0;4.0;
56360;PMS7003;42611;51.132;13.588;2023-10-13T22:28:02;4.1;3.9;
56360;PMS7003;42611;51.132;13.588;2023-10-13T22:33:02;4.2;4.0;
56360;PMS7003;42611;51.132;13.588;2023-10-13T22:43:04;3.7;3.3;
56360;PMS7003;42611;51.132;13.588;2023-10-13T22:48:01;3.5;3.3;
56360;PMS7003;42611;51.132;13.588;2023-10-13T22:53:01;3.7;3.5;
56360;PMS7003;42611;51.132;13.588;2023-10-13T22:58:02;3.4;3.1;
56360;PMS7003;42611;51.132;13.588;2023-10-13T23:04:02;3.2;3.1;
56360;PMS7003;42611;51.132;13.588;2023-10-13T23:09:01;3.1;3.0;
56360;PMS7003;42611;51.132;13.588;2023-10-13T23:14:01;3.0;2.9;
56360;PMS7003;42611;51.132;13.588;2023-10-13T23:19:02;2.8;2.6;
56360;PMS7003;42611;51.132;13.588;2023-10-13T23:29:02;2.9;2.6;
56360;PMS7003;42611;51.132;13.588;2023-10-13T23:34:01;3.2;2.8;
56360;PMS7003;42611;51.132;13.588;2023-10-13T23:39:01;2.9;2.7;
56360;PMS7003;42611;51.132;13.588;2023-10-13T23:44:01;3.3;3.1;
56360;PMS7003;42611;51.132;13.588;2023-10-13T23:49:01;3.4;3.2;
56360;PMS7003;42611;51.132;13.588;2023-10-13T23:59:02;3.1;3.1;
